Terminal Aerodrome Forecast
Issued by NWS

Current Version | Previous Version | Text Only | Print | Product List | Glossary On
Versions: 1 2 3 4 5 6 7 8 9 10 11 12 13 14 15 16
926
FTUS41 KILN 281121
TAFLCK
TAF
KLCK 281121Z 2812/2912 VRB03KT P6SM SKC
     FM281600 18008G17KT P6SM SCT250
     FM290000 16005KT P6SM SCT250
     FM290700 18005KT P6SM SCT250 WS020/23035KT=

USA.gov is the U.S. government's official web portal to all federal, state and local government web resources and services.